createdAt,value
2018-07-21T00:00:44.472Z,21.87
2018-07-21T00:03:13.157Z,22.20
2018-07-21T00:05:43.553Z,22.10
2018-07-21T00:08:12.917Z,19.23
2018-07-21T00:10:42.269Z,25.00
2018-07-21T00:13:11.079Z,20.92
2018-07-21T00:15:40.505Z,25.15
2018-07-21T00:18:09.266Z,19.20
2018-07-21T00:20:38.542Z,20.23
2018-07-21T00:23:07.448Z,23.92
2018-07-21T00:25:36.991Z,20.23
2018-07-21T00:28:07.041Z,19.07
2018-07-21T00:30:36.603Z,18.92
2018-07-21T00:33:05.196Z,20.05
2018-07-21T00:35:35.123Z,20.35
2018-07-21T00:38:03.750Z,21.17
2018-07-21T00:40:32.897Z,23.25
2018-07-21T00:43:02.400Z,22.65
2018-07-21T00:45:31.134Z,19.92
2018-07-21T00:48:01.117Z,21.77
2018-07-21T00:50:30.953Z,17.65
2018-07-21T00:53:00.405Z,24.63
2018-07-21T00:55:29.506Z,21.57
2018-07-21T00:57:58.669Z,17.95
2018-07-21T01:00:28.096Z,23.98
2018-07-21T01:02:56.928Z,17.40
2018-07-21T01:05:26.545Z,18.40
2018-07-21T01:07:55.417Z,24.60
2018-07-21T01:10:25.101Z,22.22
2018-07-21T01:12:54.728Z,16.75
2018-07-21T01:15:24.197Z,20.65
2018-07-21T01:17:53.429Z,27.15
2018-07-21T01:20:23.171Z,23.27
2018-07-21T01:22:52.614Z,15.32
2018-07-21T01:25:21.260Z,19.15
2018-07-21T01:27:51.115Z,19.67
2018-07-21T01:30:21.900Z,20.55
2018-07-21T01:32:51.297Z,18.02
2018-07-21T01:35:20.690Z,20.15
2018-07-21T01:37:49.672Z,19.12
2018-07-21T01:40:18.491Z,19.90
2018-07-21T01:42:47.269Z,22.65
2018-07-21T01:45:16.065Z,23.27
2018-07-21T01:47:44.977Z,17.75
2018-07-21T01:50:14.864Z,18.20
2018-07-21T01:52:44.212Z,21.07
2018-07-21T01:55:12.969Z,17.80
2018-07-21T01:57:43.691Z,18.40
2018-07-21T02:00:13.312Z,19.80
2018-07-21T02:02:42.809Z,20.15
2018-07-21T02:05:11.903Z,18.48
2018-07-21T02:07:41.730Z,20.23
2018-07-21T02:10:11.453Z,24.75
2018-07-21T02:12:40.686Z,22.80
2018-07-21T02:15:09.720Z,19.15
2018-07-21T02:17:39.670Z,18.70
2018-07-21T02:20:09.066Z,24.35
2018-07-21T02:22:39.355Z,22.82
2018-07-21T02:25:09.154Z,22.05
2018-07-21T02:27:38.689Z,20.45
2018-07-21T02:30:08.160Z,25.10
2018-07-21T02:32:37.059Z,24.63
2018-07-21T02:35:05.839Z,24.23
2018-07-21T02:37:35.332Z,27.02
2018-07-21T02:40:05.097Z,21.60
2018-07-21T02:42:34.950Z,19.02
2018-07-21T02:45:04.861Z,19.17
2018-07-21T02:47:34.429Z,27.45
2018-07-21T02:50:03.701Z,20.02
2018-07-21T02:52:33.399Z,24.10
2018-07-21T02:55:02.747Z,18.17
2018-07-21T02:57:32.824Z,23.85
2018-07-21T03:00:02.397Z,21.65
2018-07-21T03:02:31.933Z,24.85
2018-07-21T03:05:01.577Z,24.43
2018-07-21T03:07:31.623Z,21.10
2018-07-21T03:10:01.226Z,19.48
2018-07-21T03:12:31.108Z,23.07
2018-07-21T03:15:00.391Z,19.07
2018-07-21T03:17:29.277Z,18.50
2018-07-21T03:19:59.064Z,20.00
2018-07-21T03:22:28.668Z,20.02
2018-07-21T03:24:58.312Z,25.95
2018-07-21T03:27:27.280Z,21.57
2018-07-21T03:29:56.863Z,19.42
2018-07-21T03:32:27.032Z,18.80
2018-07-21T03:34:56.241Z,18.73
2018-07-21T03:37:24.992Z,25.65
2018-07-21T03:39:54.604Z,20.08
2018-07-21T03:42:23.277Z,20.92
2018-07-21T03:44:52.760Z,20.85
2018-07-21T03:47:22.139Z,18.90
2018-07-21T03:49:50.836Z,21.37
2018-07-21T03:52:20.701Z,18.45
2018-07-21T03:54:50.022Z,21.60
2018-07-21T03:57:19.285Z,20.20
2018-07-21T03:59:48.876Z,21.87
2018-07-21T04:02:18.656Z,23.52
2018-07-21T04:04:47.517Z,19.32
2018-07-21T04:07:16.379Z,23.75
2018-07-21T04:09:45.228Z,24.35
2018-07-21T04:12:14.514Z,21.65
2018-07-21T04:14:43.451Z,25.92
2018-07-21T04:17:20.237Z,20.65
2018-07-21T04:19:49.127Z,23.77
2018-07-21T04:22:18.684Z,19.57
2018-07-21T04:24:47.612Z,19.42
2018-07-21T04:27:16.297Z,22.40
2018-07-21T04:29:45.756Z,22.60
2018-07-21T04:32:15.441Z,21.17
2018-07-21T04:34:44.113Z,22.37
2018-07-21T04:37:13.329Z,24.32
2018-07-21T04:39:41.923Z,22.50
2018-07-21T04:42:10.989Z,24.92
2018-07-21T04:44:40.329Z,35.98
2018-07-21T04:47:09.369Z,55.58
2018-07-21T04:49:38.957Z,51.80
2018-07-21T04:52:09.455Z,57.60
2018-07-21T04:54:40.064Z,55.98
2018-07-21T04:57:08.604Z,53.68
2018-07-21T04:59:37.903Z,58.70
2018-07-21T05:02:08.200Z,56.35
2018-07-21T05:04:37.009Z,49.55
2018-07-21T05:07:06.488Z,51.55
2018-07-21T05:09:35.330Z,49.45
2018-07-21T05:12:05.045Z,49.30
2018-07-21T05:14:33.802Z,49.58
2018-07-21T05:17:03.766Z,45.67
2018-07-21T05:19:33.169Z,42.88
2018-07-21T05:22:02.674Z,38.70
2018-07-21T05:24:32.053Z,26.12
2018-07-21T05:27:00.605Z,23.12
2018-07-21T05:29:29.267Z,28.00
2018-07-21T05:31:58.898Z,22.45
2018-07-21T05:34:28.277Z,25.95
2018-07-21T05:36:57.201Z,23.15
2018-07-21T05:39:26.909Z,21.70
2018-07-21T05:41:56.208Z,18.60
2018-07-21T05:44:24.677Z,18.80
2018-07-21T05:46:53.656Z,21.17
2018-07-21T05:49:23.248Z,17.82
2018-07-21T05:51:52.896Z,16.97
2018-07-21T05:54:22.945Z,16.62
2018-07-21T05:56:51.808Z,13.72
2018-07-21T05:59:21.668Z,18.10
2018-07-21T06:01:50.408Z,16.15
2018-07-21T06:04:19.097Z,26.70
2018-07-21T06:06:48.372Z,18.52
2018-07-21T06:09:17.493Z,20.57
2018-07-21T06:11:46.952Z,18.85
2018-07-21T06:14:17.282Z,13.65
2018-07-21T06:16:46.631Z,17.32
2018-07-21T06:19:15.813Z,14.87
2018-07-21T06:21:45.812Z,14.03
2018-07-21T06:24:15.714Z,13.83
2018-07-21T06:26:45.376Z,16.50
2018-07-21T06:29:14.912Z,18.25
2018-07-21T06:31:43.582Z,19.67
2018-07-21T06:34:13.217Z,17.80
2018-07-21T06:36:42.880Z,14.65
2018-07-21T06:39:13.272Z,15.03
2018-07-21T06:41:43.424Z,12.90
2018-07-21T06:44:13.148Z,11.55
2018-07-21T06:46:43.173Z,18.92
2018-07-21T06:49:12.009Z,17.23
2018-07-21T06:51:41.546Z,14.38
2018-07-21T06:54:11.028Z,11.12
2018-07-21T06:56:40.511Z,13.50
2018-07-21T06:59:09.242Z,13.90
2018-07-21T07:01:38.986Z,13.80
2018-07-21T07:04:08.619Z,14.78
2018-07-21T07:06:37.317Z,12.63
2018-07-21T07:09:09.977Z,13.70
2018-07-21T07:11:38.780Z,18.27
2018-07-21T07:14:08.784Z,18.57
2018-07-21T07:16:38.280Z,11.30
2018-07-21T07:19:07.292Z,11.22
2018-07-21T07:21:37.020Z,12.00
2018-07-21T07:24:06.889Z,15.28
2018-07-21T07:26:36.593Z,10.78
2018-07-21T07:29:05.265Z,10.05
2018-07-21T07:31:34.674Z,10.53
2018-07-21T07:34:03.397Z,10.30
2018-07-21T07:36:34.065Z,10.98
2018-07-21T07:39:03.125Z,10.32
2018-07-21T07:41:32.897Z,9.00
2018-07-21T07:44:02.155Z,8.85
2018-07-21T07:46:31.132Z,8.70
2018-07-21T07:49:00.448Z,13.53
2018-07-21T07:51:29.517Z,10.85
2018-07-21T07:53:59.577Z,11.08
2018-07-21T07:56:29.286Z,11.75
2018-07-21T07:58:59.053Z,11.03
2018-07-21T08:01:28.992Z,11.95
2018-07-21T08:03:57.638Z,15.85
2018-07-21T08:06:27.392Z,14.00
2018-07-21T08:08:57.037Z,9.60
2018-07-21T08:11:26.365Z,13.25
2018-07-21T08:13:55.459Z,7.75
2018-07-21T08:16:25.241Z,9.68
2018-07-21T08:18:54.985Z,10.20
2018-07-21T08:21:24.472Z,12.47
2018-07-21T08:23:53.396Z,10.35
2018-07-21T08:26:23.136Z,11.03
2018-07-21T08:28:52.737Z,10.95
2018-07-21T08:31:21.715Z,9.78
2018-07-21T08:33:50.929Z,9.18
2018-07-21T08:36:19.864Z,12.10
2018-07-21T08:38:49.396Z,14.33
2018-07-21T08:41:19.105Z,13.03
2018-07-21T08:43:48.913Z,8.23
2018-07-21T08:46:18.124Z,8.80
2018-07-21T08:48:47.425Z,10.68
2018-07-21T08:51:16.847Z,16.25
2018-07-21T08:53:46.951Z,9.10
2018-07-21T08:56:15.865Z,10.30
2018-07-21T08:58:45.294Z,8.90
2018-07-21T09:01:15.313Z,8.58
2018-07-21T09:03:44.771Z,8.03
2018-07-21T09:06:13.738Z,8.75
2018-07-21T09:08:44.057Z,12.43
2018-07-21T09:11:13.250Z,12.90
2018-07-21T09:13:43.107Z,10.75
2018-07-21T09:16:12.851Z,10.78
2018-07-21T09:18:42.570Z,8.98
2018-07-21T09:21:11.881Z,14.87
2018-07-21T09:23:41.928Z,10.05
2018-07-21T09:26:11.395Z,7.78
2018-07-21T09:28:40.656Z,12.78
2018-07-21T09:31:15.109Z,11.88
2018-07-21T09:33:46.589Z,7.55
2018-07-21T09:36:15.363Z,8.00
2018-07-21T09:38:45.004Z,10.80
2018-07-21T09:41:15.416Z,10.78
2018-07-21T09:43:45.420Z,10.85
2018-07-21T09:46:15.105Z,8.28
2018-07-21T09:48:44.543Z,10.53
2018-07-21T09:51:13.405Z,7.40
2018-07-21T09:53:42.297Z,9.55
2018-07-21T09:56:13.171Z,10.15
2018-07-21T09:58:42.338Z,9.68
2018-07-21T10:01:12.584Z,12.43
2018-07-21T10:03:41.293Z,8.50
2018-07-21T10:06:10.363Z,11.40
2018-07-21T10:08:39.629Z,9.00
2018-07-21T10:11:08.409Z,9.83
2018-07-21T10:13:37.326Z,11.05
2018-07-21T10:16:07.212Z,11.83
2018-07-21T10:18:36.619Z,8.98
2018-07-21T10:21:06.605Z,8.43
2018-07-21T10:23:35.377Z,9.30
2018-07-21T10:26:09.636Z,9.00
2018-07-21T10:28:44.024Z,8.60
2018-07-21T10:31:13.689Z,11.68
2018-07-21T10:33:43.080Z,11.08
2018-07-21T10:36:12.376Z,7.90
2018-07-21T10:38:41.581Z,10.88
2018-07-21T10:41:11.130Z,10.50
2018-07-21T10:43:40.565Z,6.80
2018-07-21T10:46:09.382Z,7.72
2018-07-21T10:48:38.469Z,7.28
2018-07-21T10:51:07.222Z,8.53
2018-07-21T10:53:36.836Z,7.35
2018-07-21T10:56:07.486Z,7.12
2018-07-21T10:58:36.828Z,11.15
2018-07-21T11:01:06.153Z,9.00
2018-07-21T11:03:36.229Z,9.93
2018-07-21T11:06:06.081Z,11.68
2018-07-21T11:08:34.800Z,8.38
2018-07-21T11:11:04.362Z,11.65
2018-07-21T11:13:33.404Z,7.12
2018-07-21T11:16:02.918Z,7.87
2018-07-21T11:18:32.535Z,8.03
2018-07-21T11:21:01.701Z,7.75
2018-07-21T11:23:30.489Z,10.78
2018-07-21T11:26:00.464Z,7.65
2018-07-21T11:28:29.082Z,7.92
2018-07-21T11:30:58.934Z,7.90
2018-07-21T11:33:28.472Z,10.43
2018-07-21T11:35:57.938Z,8.70
2018-07-21T11:38:26.484Z,7.62
2018-07-21T11:40:55.273Z,7.47
2018-07-21T11:43:24.497Z,9.88
2018-07-21T11:45:53.232Z,14.93
2018-07-21T11:48:21.861Z,9.05
2018-07-21T11:50:51.069Z,8.60
2018-07-21T11:53:20.582Z,9.63
2018-07-21T11:55:49.370Z,8.13
2018-07-21T11:58:19.385Z,8.00
2018-07-21T12:17:08.246Z,13.70
2018-07-21T12:19:37.606Z,11.53
2018-07-21T12:22:06.726Z,9.20
2018-07-21T12:24:35.517Z,11.38
2018-07-21T12:27:05.192Z,13.58
2018-07-21T12:29:34.318Z,13.48
2018-07-21T12:32:03.500Z,9.08
2018-07-21T12:34:33.357Z,8.65
2018-07-21T12:37:03.376Z,12.60
2018-07-21T12:39:32.412Z,8.28
2018-07-21T12:42:01.429Z,8.73
2018-07-21T12:44:30.320Z,8.05
2018-07-21T12:46:59.627Z,8.63
2018-07-21T12:49:28.844Z,11.73
2018-07-21T12:51:57.904Z,10.15
2018-07-21T12:54:26.777Z,8.53
2018-07-21T12:56:56.555Z,8.35
2018-07-21T12:59:25.394Z,10.10
2018-07-21T13:01:55.511Z,9.05
2018-07-21T13:04:25.057Z,7.87
2018-07-21T13:06:53.661Z,9.60
2018-07-21T13:09:23.276Z,9.98
2018-07-21T13:11:52.845Z,10.93
2018-07-21T13:14:23.105Z,10.50
2018-07-21T13:16:52.434Z,9.28
2018-07-21T13:19:21.110Z,7.87
2018-07-21T13:21:50.319Z,8.68
2018-07-21T13:24:20.128Z,8.08
2018-07-21T13:26:48.806Z,9.08
2018-07-21T13:29:18.311Z,7.62
2018-07-21T13:31:47.224Z,8.55
2018-07-21T13:34:17.032Z,9.18
2018-07-21T13:36:47.281Z,10.70
2018-07-21T13:39:17.222Z,8.20
2018-07-21T13:41:47.843Z,9.65
2018-07-21T13:44:25.163Z,11.63
2018-07-21T13:46:54.970Z,10.13
2018-07-21T13:49:24.763Z,9.20
2018-07-21T13:51:54.557Z,12.78
2018-07-21T13:54:23.893Z,12.75
2018-07-21T13:56:52.721Z,10.58
2018-07-21T13:59:21.517Z,12.95
2018-07-21T14:01:51.560Z,8.40
2018-07-21T14:04:20.676Z,7.03
2018-07-21T14:06:49.381Z,10.88
2018-07-21T14:09:18.365Z,9.53
2018-07-21T14:11:48.065Z,11.08
2018-07-21T14:14:17.733Z,12.65
2018-07-21T14:16:46.923Z,10.05
2018-07-21T14:19:16.357Z,7.37
2018-07-21T14:21:45.783Z,9.48
2018-07-21T14:24:15.545Z,6.97
2018-07-21T14:26:44.813Z,9.03
2018-07-21T14:29:13.487Z,7.90
2018-07-21T14:31:43.129Z,8.88
2018-07-21T14:34:13.452Z,11.38
2018-07-21T14:36:43.418Z,8.45
2018-07-21T14:39:13.792Z,9.73
2018-07-21T14:41:42.770Z,7.72
2018-07-21T14:44:12.584Z,9.60
2018-07-21T14:46:41.548Z,7.47
2018-07-21T14:49:10.781Z,8.33
2018-07-21T14:51:40.056Z,10.72
2018-07-21T14:54:08.969Z,7.95
2018-07-21T14:56:38.865Z,9.58
2018-07-21T14:59:08.065Z,8.70
2018-07-21T15:01:37.304Z,8.30
2018-07-21T15:04:06.862Z,10.98
2018-07-21T15:06:36.724Z,13.35
2018-07-21T15:09:09.023Z,15.30
2018-07-21T15:11:39.665Z,11.88
2018-07-21T15:14:09.384Z,7.58
2018-07-21T15:16:39.174Z,10.20
2018-07-21T15:19:09.304Z,8.30
2018-07-21T15:21:38.696Z,9.00
2018-07-21T15:24:07.843Z,8.93
2018-07-21T15:26:36.636Z,9.25
2018-07-21T15:29:05.593Z,8.65
2018-07-21T15:31:35.517Z,7.95
2018-07-21T15:34:04.659Z,9.80
2018-07-21T15:36:33.497Z,9.45
2018-07-21T15:39:04.536Z,11.78
2018-07-21T15:41:34.436Z,9.50
2018-07-21T15:44:04.335Z,15.30
2018-07-21T15:46:33.140Z,7.12
2018-07-21T15:49:02.337Z,5.92
2018-07-21T15:51:31.117Z,9.85
2018-07-21T15:53:59.706Z,11.85
2018-07-21T15:56:28.800Z,9.60
2018-07-21T15:58:57.594Z,7.60
2018-07-21T16:01:26.827Z,6.53
2018-07-21T16:03:55.729Z,6.80
2018-07-21T16:06:25.449Z,10.45
2018-07-21T16:08:54.899Z,7.22
2018-07-21T16:11:24.726Z,14.63
2018-07-21T16:13:53.397Z,10.13
2018-07-21T16:16:22.260Z,8.95
2018-07-21T16:18:51.491Z,9.85
2018-07-21T16:21:20.691Z,7.62
2018-07-21T16:23:49.350Z,6.28
2018-07-21T16:26:18.769Z,7.78
2018-07-21T16:28:47.954Z,9.60
2018-07-21T16:31:18.012Z,9.33
2018-07-21T16:33:47.301Z,21.12
2018-07-21T16:36:17.821Z,16.35
2018-07-21T16:38:48.382Z,12.90
2018-07-21T16:41:18.888Z,10.58
2018-07-21T16:43:48.364Z,9.68
2018-07-21T16:46:18.047Z,26.97
2018-07-21T16:48:47.745Z,17.05
2018-07-21T16:51:17.268Z,16.75
2018-07-21T16:53:47.116Z,8.08
2018-07-21T16:56:17.290Z,10.18
2018-07-21T16:58:46.884Z,6.70
2018-07-21T17:01:15.709Z,8.28
2018-07-21T17:03:45.039Z,9.85
2018-07-21T17:06:14.240Z,7.50
2018-07-21T17:08:44.422Z,9.08
2018-07-21T17:11:15.041Z,8.00
2018-07-21T17:13:44.495Z,18.32
2018-07-21T17:16:13.750Z,10.40
2018-07-21T17:18:42.412Z,18.10
2018-07-21T17:21:12.059Z,8.60
2018-07-21T17:23:40.696Z,11.70
2018-07-21T17:26:10.460Z,33.25
2018-07-21T17:28:39.337Z,9.38
2018-07-21T17:31:08.729Z,8.60
2018-07-21T17:33:37.621Z,9.03
2018-07-21T17:36:07.413Z,16.02
2018-07-21T17:38:37.676Z,17.12
2018-07-21T17:41:07.592Z,8.83
2018-07-21T17:43:38.344Z,52.88
2018-07-21T17:46:07.598Z,22.32
2018-07-21T17:48:38.251Z,8.78
2018-07-21T17:51:07.093Z,16.23
2018-07-21T17:53:36.226Z,32.45
2018-07-21T17:56:06.096Z,13.43
2018-07-21T17:58:35.015Z,12.58
2018-07-21T18:01:04.538Z,14.00
2018-07-21T18:03:33.788Z,8.30
2018-07-21T18:06:04.028Z,12.82
2018-07-21T18:08:33.268Z,12.55
2018-07-21T18:11:02.038Z,11.55
2018-07-21T18:13:31.256Z,44.48
2018-07-21T18:16:00.431Z,19.25
2018-07-21T18:18:29.120Z,17.98
2018-07-21T18:20:58.460Z,12.43
2018-07-21T18:23:27.315Z,9.35
2018-07-21T18:25:56.427Z,12.78
2018-07-21T18:28:25.283Z,19.30
2018-07-21T18:30:55.121Z,18.87
2018-07-21T18:33:24.876Z,32.58
2018-07-21T18:35:54.219Z,27.85
2018-07-21T18:38:23.017Z,13.88
2018-07-21T18:40:51.621Z,13.03
2018-07-21T18:43:20.194Z,9.00
2018-07-21T18:45:48.857Z,13.68
2018-07-21T18:48:17.639Z,10.63
2018-07-21T18:50:46.822Z,13.40
2018-07-21T18:53:15.692Z,10.90
2018-07-21T18:55:44.346Z,13.25
2018-07-21T18:58:13.371Z,18.65
2018-07-21T19:00:43.281Z,10.95
2018-07-21T19:03:12.491Z,15.83
2018-07-21T19:05:41.157Z,9.58
2018-07-21T19:08:14.006Z,16.52
2018-07-21T19:10:43.196Z,10.93
2018-07-21T19:13:12.873Z,26.52
2018-07-21T19:15:47.039Z,21.50
2018-07-21T19:18:16.366Z,15.90
2018-07-21T19:20:50.661Z,14.93
2018-07-21T19:23:19.394Z,18.65
2018-07-21T19:25:54.148Z,20.90
2018-07-21T19:28:25.099Z,17.12
2018-07-21T19:30:55.135Z,14.83
2018-07-21T19:33:24.998Z,18.20
2018-07-21T19:35:53.668Z,14.13
2018-07-21T19:38:22.653Z,15.15
2018-07-21T19:40:51.345Z,14.40
2018-07-21T19:43:20.396Z,13.40
2018-07-21T19:45:49.157Z,14.68
2018-07-21T19:48:18.618Z,22.45
2018-07-21T19:50:47.313Z,19.10
2018-07-21T19:53:16.499Z,19.90
2018-07-21T19:55:45.178Z,17.50
2018-07-21T19:58:14.546Z,18.40
2018-07-21T20:00:43.303Z,19.40
2018-07-21T20:03:12.435Z,21.33
2018-07-21T20:05:40.974Z,15.25
2018-07-21T20:08:09.641Z,13.13
2018-07-21T20:10:38.789Z,24.15
2018-07-21T20:13:07.396Z,27.67
2018-07-21T20:15:37.347Z,17.23
2018-07-21T20:18:06.757Z,22.17
2018-07-21T20:20:35.399Z,23.40
2018-07-21T20:23:04.221Z,15.13
2018-07-21T20:25:33.944Z,19.48
2018-07-21T20:28:02.964Z,19.80
2018-07-21T20:30:32.063Z,18.40
2018-07-21T20:33:01.994Z,19.80
2018-07-21T20:35:31.678Z,15.75
2018-07-21T20:38:27.823Z,17.07
2018-07-21T20:41:15.643Z,16.02
2018-07-21T20:44:04.906Z,13.72
2018-07-21T20:47:03.710Z,21.62
2018-07-21T20:49:38.928Z,14.00
2018-07-21T20:52:40.867Z,19.20
2018-07-21T20:55:39.404Z,18.45
2018-07-21T20:58:19.167Z,15.08
2018-07-21T21:01:19.546Z,28.07
2018-07-21T21:03:56.982Z,19.95
2018-07-21T21:06:44.214Z,17.00
2018-07-21T21:09:36.875Z,18.48
2018-07-21T21:12:43.447Z,18.25
2018-07-21T21:15:26.879Z,16.85
2018-07-21T21:18:11.504Z,17.05
2018-07-21T21:21:11.512Z,16.45
2018-07-21T21:23:51.478Z,15.83
2018-07-21T21:29:55.583Z,19.40
2018-07-21T21:32:47.064Z,16.37
2018-07-21T21:35:32.881Z,18.17
2018-07-21T21:38:13.105Z,15.55
2018-07-21T21:41:02.372Z,13.10
2018-07-21T21:43:36.037Z,18.98
2018-07-21T21:46:29.659Z,18.05
2018-07-21T21:48:59.952Z,15.93
2018-07-21T21:51:31.012Z,15.68
2018-07-21T21:54:02.317Z,20.35
2018-07-21T21:56:34.490Z,17.50
2018-07-21T21:59:17.474Z,13.13
2018-07-21T22:01:54.007Z,17.80
2018-07-21T22:04:26.203Z,16.05
2018-07-21T22:07:05.971Z,18.15
2018-07-21T22:09:46.753Z,16.48
2018-07-21T22:12:20.681Z,15.70
2018-07-21T22:14:52.558Z,16.07
2018-07-21T22:17:24.094Z,17.05
2018-07-21T22:19:53.516Z,15.28
2018-07-21T22:22:22.425Z,16.37
2018-07-21T22:24:51.087Z,15.43
2018-07-21T22:27:26.963Z,16.82
2018-07-21T22:30:07.822Z,23.45
2018-07-21T22:32:47.563Z,17.00
2018-07-21T22:35:19.832Z,15.25
2018-07-21T22:37:50.589Z,17.90
2018-07-21T22:40:22.646Z,20.95
2018-07-21T22:42:53.735Z,15.88
2018-07-21T22:45:26.144Z,14.90
2018-07-21T22:47:55.928Z,13.53
2018-07-21T22:50:29.794Z,16.80
2018-07-21T22:53:02.617Z,16.95
2018-07-21T22:55:39.472Z,19.20
2018-07-21T22:58:11.991Z,19.45
2018-07-21T23:00:45.797Z,18.40
2018-07-21T23:03:19.399Z,18.87
2018-07-21T23:05:51.574Z,20.95
2018-07-21T23:08:22.968Z,16.02
2018-07-21T23:10:55.797Z,18.10
2018-07-21T23:13:28.096Z,17.20
2018-07-21T23:15:59.168Z,15.48
2018-07-21T23:18:30.277Z,17.65
2018-07-21T23:21:03.188Z,16.02
2018-07-21T23:23:34.606Z,18.25
2018-07-21T23:26:06.489Z,15.03
2018-07-21T23:28:41.615Z,16.57
2018-07-21T23:31:13.516Z,17.00
2018-07-21T23:33:46.033Z,17.12
2018-07-21T23:36:15.947Z,18.90
2018-07-21T23:38:45.478Z,17.73
2018-07-21T23:41:14.739Z,16.93
2018-07-21T23:43:43.442Z,16.95
2018-07-21T23:46:13.029Z,16.40
2018-07-21T23:48:42.582Z,19.57
2018-07-21T23:51:11.740Z,13.48
2018-07-21T23:53:41.172Z,15.23
2018-07-21T23:56:10.492Z,14.68
2018-07-21T23:58:39.199Z,13.80
